createdAt,value
2024-02-28T00:00:56.508Z,24.90
2024-02-28T00:03:26.226Z,24.90
2024-02-28T00:05:56.246Z,24.80
2024-02-28T00:08:25.763Z,24.80
2024-02-28T00:10:56.167Z,24.70
2024-02-28T00:13:26.786Z,24.70
2024-02-28T00:15:55.822Z,24.70
2024-02-28T00:18:25.990Z,24.80
2024-02-28T00:20:56.828Z,24.80
2024-02-28T00:23:27.158Z,24.70
2024-02-28T00:25:56.001Z,24.70
2024-02-28T00:28:25.846Z,24.70
2024-02-28T00:30:55.485Z,24.70
2024-02-28T00:33:24.846Z,24.80
2024-02-28T00:35:56.275Z,24.80
2024-02-28T00:38:26.274Z,24.70
2024-02-28T00:40:56.811Z,24.60
2024-02-28T00:43:26.185Z,24.60
2024-02-28T00:45:58.875Z,24.50
2024-02-28T00:48:31.757Z,24.60
2024-02-28T00:51:02.067Z,24.70
2024-02-28T00:53:31.501Z,24.80
2024-02-28T00:56:00.899Z,24.80
2024-02-28T00:58:33.610Z,24.80
2024-02-28T01:01:03.100Z,24.90
2024-02-28T01:03:32.627Z,24.80
2024-02-28T01:06:03.606Z,24.80
2024-02-28T01:08:33.252Z,24.80
2024-02-28T01:11:02.782Z,24.80
2024-02-28T01:13:32.408Z,24.70
2024-02-28T01:16:02.254Z,24.70
2024-02-28T01:18:33.971Z,24.70
2024-02-28T01:21:03.454Z,24.80
2024-02-28T01:23:34.022Z,24.90
2024-02-28T01:26:06.317Z,24.90
2024-02-28T01:28:36.960Z,25.00
2024-02-28T01:31:08.059Z,25.00
2024-02-28T01:33:38.617Z,25.00
2024-02-28T01:36:10.362Z,25.00
2024-02-28T01:38:41.414Z,25.00
2024-02-28T01:41:10.992Z,25.10
2024-02-28T01:43:40.688Z,25.10
2024-02-28T01:46:25.099Z,25.20
2024-02-28T01:48:55.496Z,25.40
2024-02-28T01:51:29.685Z,25.40
2024-02-28T01:54:00.715Z,25.50
2024-02-28T01:56:31.051Z,25.50
2024-02-28T01:59:02.664Z,25.50
2024-02-28T02:01:32.894Z,25.70
2024-02-28T02:04:02.895Z,25.80
2024-02-28T02:06:34.928Z,25.90
2024-02-28T02:09:05.399Z,25.90
2024-02-28T02:11:34.609Z,25.90
2024-02-28T02:14:04.223Z,26.00
2024-02-28T02:16:34.278Z,26.00
2024-02-28T02:19:04.050Z,26.10
2024-02-28T02:21:55.896Z,26.10
2024-02-28T02:24:27.850Z,26.10
2024-02-28T02:27:02.440Z,26.10
2024-02-28T02:29:33.417Z,26.10
2024-02-28T02:32:02.945Z,26.10
2024-02-28T02:34:32.599Z,26.10
2024-02-28T02:37:03.771Z,26.20
2024-02-28T02:39:33.292Z,26.30
2024-02-28T02:42:02.830Z,26.20
2024-02-28T02:44:32.563Z,26.30
2024-02-28T02:47:02.118Z,26.30
2024-02-28T02:49:31.649Z,26.40
2024-02-28T02:52:01.280Z,26.40
2024-02-28T02:54:31.087Z,26.50
2024-02-28T02:57:02.636Z,26.60
2024-02-28T02:59:32.317Z,26.70
2024-02-28T03:02:02.154Z,26.80
2024-02-28T03:04:31.693Z,26.90
2024-02-28T03:07:01.645Z,26.90
2024-02-28T03:09:32.410Z,27.00
2024-02-28T03:12:02.352Z,27.00
2024-02-28T03:14:32.730Z,27.10
2024-02-28T03:17:01.647Z,27.10
2024-02-28T03:19:31.631Z,27.10
2024-02-28T03:22:03.074Z,27.10
2024-02-28T03:24:33.031Z,27.20
2024-02-28T03:27:02.825Z,27.30
2024-02-28T03:29:32.780Z,27.40
2024-02-28T03:32:02.670Z,27.50
2024-02-28T03:34:35.330Z,27.60
2024-02-28T03:37:05.263Z,27.60
2024-02-28T03:39:35.059Z,27.60
2024-02-28T03:42:06.905Z,27.60
2024-02-28T03:44:36.794Z,27.60
2024-02-28T03:47:06.592Z,27.70
2024-02-28T03:49:37.727Z,27.70
2024-02-28T03:52:08.592Z,27.80
2024-02-28T03:54:38.271Z,27.90
2024-02-28T03:57:07.917Z,27.90
2024-02-28T03:59:39.039Z,28.00
2024-02-28T04:02:08.975Z,28.00
2024-02-28T04:04:38.474Z,28.10
2024-02-28T04:07:09.943Z,28.20
2024-02-28T04:09:40.622Z,28.20
2024-02-28T04:12:10.856Z,28.20
2024-02-28T04:14:43.542Z,28.20
2024-02-28T04:17:14.376Z,28.20
2024-02-28T04:19:43.903Z,28.30
2024-02-28T04:22:13.666Z,28.30
2024-02-28T04:24:43.793Z,28.40
2024-02-28T04:27:13.985Z,28.50
2024-02-28T04:32:41.758Z,28.50
2024-02-28T04:35:12.099Z,28.60
2024-02-28T04:37:41.075Z,28.60
2024-02-28T04:40:11.210Z,28.60
2024-02-28T04:42:42.279Z,28.80
2024-02-28T04:45:12.562Z,28.80
2024-02-28T04:47:44.652Z,28.90
2024-02-28T04:50:16.296Z,29.00
2024-02-28T04:52:48.281Z,29.10
2024-02-28T04:55:18.150Z,29.10
2024-02-28T04:57:47.791Z,29.20
2024-02-28T05:00:21.987Z,29.20
2024-02-28T05:02:51.657Z,29.30
2024-02-28T05:05:21.257Z,29.30
2024-02-28T05:07:52.080Z,29.40
2024-02-28T05:10:21.899Z,29.40
2024-02-28T05:12:54.773Z,29.50
2024-02-28T05:15:25.622Z,29.50
2024-02-28T05:17:55.737Z,29.50
2024-02-28T05:20:25.592Z,29.50
2024-02-28T05:22:55.268Z,29.50
2024-02-28T05:25:26.335Z,29.50
2024-02-28T05:27:57.818Z,29.50
2024-02-28T05:30:27.916Z,29.50
2024-02-28T05:32:59.606Z,29.70
2024-02-28T05:35:29.378Z,29.70
2024-02-28T05:37:59.196Z,29.80
2024-02-28T05:40:28.869Z,29.80
2024-02-28T05:42:58.444Z,29.80
2024-02-28T05:45:28.272Z,29.90
2024-02-28T05:47:58.051Z,29.90
2024-02-28T05:50:27.835Z,30.00
2024-02-28T05:52:58.668Z,30.00
2024-02-28T05:55:28.628Z,30.10
2024-02-28T05:58:00.125Z,30.10
2024-02-28T06:00:30.608Z,30.20
2024-02-28T06:03:01.410Z,30.20
2024-02-28T06:05:31.232Z,30.40
2024-02-28T06:08:04.374Z,30.40
2024-02-28T06:10:34.128Z,30.40
2024-02-28T06:13:06.493Z,30.50
2024-02-28T06:15:36.362Z,30.60
2024-02-28T06:18:09.739Z,30.70
2024-02-28T06:20:46.337Z,30.80
2024-02-28T06:23:27.197Z,30.80
2024-02-28T06:26:02.417Z,30.80
2024-02-28T06:28:32.768Z,30.80
2024-02-28T06:31:09.064Z,30.90
2024-02-28T06:33:44.743Z,30.90
2024-02-28T06:36:17.774Z,30.80
2024-02-28T06:38:48.267Z,30.80
2024-02-28T06:41:18.961Z,30.80
2024-02-28T06:43:50.112Z,30.70
2024-02-28T06:46:20.243Z,30.70
2024-02-28T06:48:53.218Z,30.70
2024-02-28T06:51:24.221Z,30.70
2024-02-28T06:53:55.614Z,30.70
2024-02-28T06:56:26.567Z,30.70
2024-02-28T06:58:56.800Z,30.80
2024-02-28T07:01:27.160Z,30.90
2024-02-28T07:04:03.050Z,30.90
2024-02-28T07:06:36.583Z,30.90
2024-02-28T07:09:13.668Z,30.80
2024-02-28T07:11:46.065Z,30.80
2024-02-28T07:14:18.967Z,30.90
2024-02-28T07:16:49.508Z,30.80
2024-02-28T07:19:24.837Z,30.90
2024-02-28T07:21:54.735Z,30.90
2024-02-28T07:24:26.970Z,30.90
2024-02-28T07:26:57.313Z,30.90
2024-02-28T07:29:32.792Z,30.90
2024-02-28T07:32:07.627Z,30.90
2024-02-28T07:34:37.259Z,30.90
2024-02-28T07:37:10.300Z,30.90
2024-02-28T07:39:44.910Z,30.90
2024-02-28T07:42:14.692Z,31.00
2024-02-28T07:44:48.524Z,31.00
2024-02-28T07:47:24.131Z,31.00
2024-02-28T07:49:56.156Z,31.00
2024-02-28T07:52:29.696Z,31.00
2024-02-28T07:55:38.680Z,31.10
2024-02-28T07:58:08.659Z,31.10
2024-02-28T08:00:38.879Z,31.10
2024-02-28T08:03:08.977Z,31.10
2024-02-28T08:05:46.998Z,31.10
2024-02-28T08:08:17.124Z,31.10
2024-02-28T08:10:53.918Z,31.10
2024-02-28T08:13:24.141Z,31.10
2024-02-28T08:15:55.016Z,31.20
2024-02-28T08:18:26.631Z,31.20
2024-02-28T08:21:01.395Z,31.20
2024-02-28T08:23:35.512Z,31.20
2024-02-28T08:26:07.968Z,31.20
2024-02-28T08:28:38.633Z,31.20
2024-02-28T08:31:10.146Z,31.20
2024-02-28T08:33:47.185Z,31.20
2024-02-28T08:36:19.825Z,31.20
2024-02-28T08:38:50.859Z,31.20
2024-02-28T08:41:24.675Z,31.30
2024-02-28T08:43:57.633Z,31.30
2024-02-28T08:46:34.398Z,31.30
2024-02-28T08:49:11.254Z,31.30
2024-02-28T08:51:50.270Z,31.30
2024-02-28T08:54:28.648Z,31.30
2024-02-28T08:57:03.884Z,31.30
2024-02-28T08:59:34.111Z,31.30
2024-02-28T09:02:03.985Z,31.30
2024-02-28T09:04:43.824Z,31.30
2024-02-28T09:07:16.004Z,31.30
2024-02-28T09:09:47.065Z,31.30
2024-02-28T09:12:20.451Z,31.40
2024-02-28T09:14:57.217Z,31.30
2024-02-28T09:17:33.071Z,31.30
2024-02-28T09:20:06.601Z,31.20
2024-02-28T09:22:40.818Z,31.20
2024-02-28T09:25:11.676Z,31.20
2024-02-28T09:27:46.118Z,31.30
2024-02-28T09:30:21.577Z,31.20
2024-02-28T09:33:03.754Z,31.20
2024-02-28T09:35:34.883Z,31.20
2024-02-28T09:38:15.574Z,31.20
2024-02-28T09:40:50.552Z,31.20
2024-02-28T09:43:34.436Z,31.20
2024-02-28T09:46:36.950Z,31.20
2024-02-28T09:49:11.248Z,31.20
2024-02-28T09:51:41.940Z,31.20
2024-02-28T09:54:13.171Z,31.20
2024-02-28T09:56:43.233Z,31.20
2024-02-28T09:59:16.230Z,31.20
2024-02-28T10:01:58.952Z,31.20
2024-02-28T10:04:33.182Z,31.20
2024-02-28T10:07:16.573Z,31.20
2024-02-28T10:09:52.602Z,31.20
2024-02-28T10:12:27.731Z,31.10
2024-02-28T10:15:02.642Z,31.10
2024-02-28T10:17:36.074Z,31.10
2024-02-28T10:20:12.440Z,31.00
2024-02-28T10:22:44.911Z,31.10
2024-02-28T10:25:14.539Z,31.00
2024-02-28T10:27:49.027Z,31.00
2024-02-28T10:30:20.626Z,31.00
2024-02-28T10:32:59.384Z,31.00
2024-02-28T10:35:31.908Z,31.00
2024-02-28T10:38:04.838Z,30.90
2024-02-28T10:40:35.896Z,30.90
2024-02-28T10:43:07.639Z,30.90
2024-02-28T10:45:58.209Z,30.90
2024-02-28T10:48:37.004Z,30.80
2024-02-28T10:51:12.557Z,30.80
2024-02-28T10:53:44.865Z,30.80
2024-02-28T10:56:17.670Z,30.80
2024-02-28T10:58:58.888Z,30.80
2024-02-28T11:01:34.274Z,30.80
2024-02-28T11:04:04.388Z,30.70
2024-02-28T11:06:35.418Z,30.70
2024-02-28T11:09:09.488Z,30.70
2024-02-28T11:11:42.860Z,30.60
2024-02-28T11:14:19.110Z,30.60
2024-02-28T11:17:04.101Z,30.50
2024-02-28T11:19:36.284Z,30.50
2024-02-28T11:22:09.110Z,30.50
2024-02-28T11:24:40.544Z,30.40
2024-02-28T11:27:17.694Z,30.40
2024-02-28T11:29:49.227Z,30.40
2024-02-28T11:32:20.896Z,30.40
2024-02-28T11:34:53.923Z,30.30
2024-02-28T11:37:24.546Z,30.30
2024-02-28T11:39:54.365Z,30.30
2024-02-28T11:42:26.152Z,30.30
2024-02-28T11:45:01.591Z,30.20
2024-02-28T11:47:32.826Z,30.20
2024-02-28T11:50:06.959Z,30.20
2024-02-28T11:52:39.386Z,30.20
2024-02-28T11:55:09.404Z,30.20
2024-02-28T11:57:40.615Z,30.20
2024-02-28T12:00:14.831Z,30.10
2024-02-28T12:02:44.653Z,30.10
2024-02-28T12:05:14.760Z,30.10
2024-02-28T12:07:45.041Z,30.10
2024-02-28T12:10:15.979Z,30.10
2024-02-28T12:12:46.888Z,30.10
2024-02-28T12:15:17.551Z,30.10
2024-02-28T12:17:53.446Z,30.00
2024-02-28T12:20:23.143Z,30.00
2024-02-28T12:22:53.544Z,30.00
2024-02-28T12:25:23.184Z,30.00
2024-02-28T12:27:55.983Z,30.00
2024-02-28T12:30:25.836Z,29.90
2024-02-28T12:32:59.141Z,30.00
2024-02-28T12:35:29.002Z,30.00
2024-02-28T12:38:00.848Z,29.90
2024-02-28T12:40:30.439Z,29.90
2024-02-28T12:43:00.177Z,30.00
2024-02-28T12:45:31.537Z,29.90
2024-02-28T12:48:03.456Z,29.90
2024-02-28T12:50:33.678Z,29.90
2024-02-28T12:53:03.705Z,29.90
2024-02-28T12:55:33.275Z,29.90
2024-02-28T12:58:07.533Z,30.00
2024-02-28T13:00:37.680Z,29.90
2024-02-28T13:03:07.350Z,29.90
2024-02-28T13:05:37.559Z,29.90
2024-02-28T13:08:06.963Z,29.90
2024-02-28T13:10:41.964Z,29.90
2024-02-28T13:13:11.838Z,29.90
2024-02-28T13:15:43.849Z,29.90
2024-02-28T13:18:13.961Z,29.90
2024-02-28T13:20:44.848Z,29.80
2024-02-28T13:23:14.576Z,29.90
2024-02-28T13:25:44.233Z,29.80
2024-02-28T13:28:17.001Z,29.90
2024-02-28T13:30:48.865Z,29.80
2024-02-28T13:33:20.257Z,29.80
2024-02-28T13:35:59.694Z,29.80
2024-02-28T13:38:32.307Z,29.80
2024-02-28T13:41:03.810Z,29.80
2024-02-28T13:43:38.708Z,29.90
2024-02-28T13:46:08.561Z,29.80
2024-02-28T13:48:38.461Z,29.80
2024-02-28T13:51:19.857Z,29.80
2024-02-28T13:53:49.589Z,29.80
2024-02-28T13:56:19.377Z,29.70
2024-02-28T13:58:53.921Z,29.70
2024-02-28T14:01:27.126Z,29.60
2024-02-28T14:03:58.303Z,29.60
2024-02-28T14:06:28.193Z,29.50
2024-02-28T14:08:58.000Z,29.50
2024-02-28T14:11:30.039Z,29.50
2024-02-28T14:14:00.033Z,29.40
2024-02-28T14:16:29.704Z,29.30
2024-02-28T14:19:01.680Z,29.30
2024-02-28T14:21:31.570Z,29.20
2024-02-28T14:24:12.075Z,29.20
2024-02-28T14:26:45.002Z,29.20
2024-02-28T14:29:16.319Z,29.10
2024-02-28T14:31:51.297Z,29.10
2024-02-28T14:34:21.519Z,29.10
2024-02-28T14:36:51.968Z,29.00
2024-02-28T14:39:22.676Z,29.00
2024-02-28T14:41:57.069Z,29.00
2024-02-28T14:44:27.946Z,29.00
2024-02-28T14:46:59.690Z,29.00
2024-02-28T14:49:33.690Z,29.00
2024-02-28T14:52:05.472Z,28.90
2024-02-28T14:54:37.608Z,28.90
2024-02-28T14:57:09.366Z,28.80
2024-02-28T14:59:41.729Z,28.80
2024-02-28T15:02:14.353Z,28.80
2024-02-28T15:04:44.244Z,28.70
2024-02-28T15:07:14.296Z,28.70
2024-02-28T15:09:44.927Z,28.60
2024-02-28T15:12:15.573Z,28.60
2024-02-28T15:14:45.961Z,28.60
2024-02-28T15:17:15.413Z,28.60
2024-02-28T15:19:45.567Z,28.60
2024-02-28T15:22:18.816Z,28.50
2024-02-28T15:24:51.352Z,28.50
2024-02-28T15:27:21.285Z,28.50
2024-02-28T15:29:51.111Z,28.50
2024-02-28T15:32:26.608Z,28.50
2024-02-28T15:34:57.053Z,28.50
2024-02-28T15:37:30.400Z,28.50
2024-02-28T15:40:00.061Z,28.50
2024-02-28T15:42:34.654Z,28.50
2024-02-28T15:45:04.653Z,28.40
2024-02-28T15:47:48.273Z,28.40
2024-02-28T15:50:17.972Z,28.40
2024-02-28T15:52:52.063Z,28.40
2024-02-28T15:55:24.075Z,28.40
2024-02-28T15:57:54.220Z,28.30
2024-02-28T16:00:24.029Z,28.30
2024-02-28T16:02:53.538Z,28.30
2024-02-28T16:05:27.375Z,28.30
2024-02-28T16:07:58.468Z,28.30
2024-02-28T16:10:29.159Z,28.30
2024-02-28T16:12:59.039Z,28.30
2024-02-28T16:15:28.617Z,28.30
2024-02-28T16:17:58.382Z,28.30
2024-02-28T16:20:27.977Z,28.30
2024-02-28T16:23:03.950Z,28.30
2024-02-28T16:25:36.279Z,28.30
2024-02-28T16:28:07.162Z,28.30
2024-02-28T16:30:37.123Z,28.30
2024-02-28T16:33:07.131Z,28.30
2024-02-28T16:35:36.967Z,28.30
2024-02-28T16:38:12.790Z,28.30
2024-02-28T16:40:45.004Z,28.30
2024-02-28T16:43:15.313Z,28.30
2024-02-28T16:45:44.387Z,28.30
2024-02-28T16:48:16.057Z,28.30
2024-02-28T16:50:45.623Z,28.30
2024-02-28T16:53:17.521Z,28.30
2024-02-28T16:55:47.175Z,28.30
2024-02-28T16:58:22.737Z,28.30
2024-02-28T17:00:52.559Z,28.30
2024-02-28T17:03:24.183Z,28.30
2024-02-28T17:05:53.973Z,28.40
2024-02-28T17:08:29.317Z,28.40
2024-02-28T17:10:59.790Z,28.40
2024-02-28T17:13:30.107Z,28.40
2024-02-28T17:16:04.562Z,28.40
2024-02-28T17:18:36.078Z,28.40
2024-02-28T17:21:05.958Z,28.40
2024-02-28T17:23:35.576Z,28.40
2024-02-28T17:26:05.434Z,28.40
2024-02-28T17:28:35.626Z,28.40
2024-02-28T17:31:05.370Z,28.40
2024-02-28T17:33:36.765Z,28.40
2024-02-28T17:36:09.698Z,28.40
2024-02-28T17:38:39.515Z,28.40
2024-02-28T17:41:12.533Z,28.40
2024-02-28T17:43:42.322Z,28.40
2024-02-28T17:46:12.008Z,28.40
2024-02-28T17:48:43.732Z,28.40
2024-02-28T17:51:14.736Z,28.40
2024-02-28T17:53:44.532Z,28.40
2024-02-28T17:56:15.301Z,28.30
2024-02-28T17:58:44.863Z,28.40
2024-02-28T18:01:14.621Z,28.40
2024-02-28T18:03:44.683Z,28.40
2024-02-28T18:06:14.612Z,28.40
2024-02-28T18:08:44.530Z,28.40
2024-02-28T18:11:14.465Z,28.40
2024-02-28T18:13:47.236Z,28.40
2024-02-28T18:16:17.593Z,28.40
2024-02-28T18:18:48.627Z,28.40
2024-02-28T18:21:18.590Z,28.30
2024-02-28T18:23:51.107Z,28.30
2024-02-28T18:26:22.628Z,28.30
2024-02-28T18:28:53.126Z,28.20
2024-02-28T18:31:22.543Z,28.20
2024-02-28T18:33:52.178Z,28.10
2024-02-28T18:36:22.511Z,28.10
2024-02-28T18:38:51.632Z,28.10
2024-02-28T18:41:21.489Z,28.00
2024-02-28T18:43:51.383Z,28.00
2024-02-28T18:46:21.381Z,28.00
2024-02-28T18:48:53.177Z,28.00
2024-02-28T18:51:22.786Z,28.00
2024-02-28T18:53:52.320Z,28.10
2024-02-28T18:56:22.021Z,28.00
2024-02-28T18:58:51.624Z,28.00
2024-02-28T19:01:21.241Z,28.00
2024-02-28T19:03:51.354Z,28.00
2024-02-28T19:06:20.876Z,27.90
2024-02-28T19:08:52.459Z,27.90
2024-02-28T19:11:22.584Z,27.90
2024-02-28T19:13:53.869Z,27.90
2024-02-28T19:16:23.457Z,27.90
2024-02-28T19:18:52.917Z,27.80
2024-02-28T19:21:22.555Z,27.80
2024-02-28T19:23:52.081Z,27.80
2024-02-28T19:26:21.518Z,27.80
2024-02-28T19:28:52.609Z,27.70
2024-02-28T19:31:22.091Z,27.80
2024-02-28T19:33:51.658Z,27.80
2024-02-28T19:36:21.756Z,27.80
2024-02-28T19:38:51.460Z,27.80
2024-02-28T19:41:20.859Z,27.80
2024-02-28T19:43:50.453Z,27.80
2024-02-28T19:46:19.956Z,27.80
2024-02-28T19:48:49.879Z,27.80
2024-02-28T19:51:22.327Z,27.80
2024-02-28T19:53:51.772Z,27.80
2024-02-28T19:56:22.388Z,27.80
2024-02-28T19:58:53.462Z,27.80
2024-02-28T20:01:23.137Z,27.90
2024-02-28T20:03:52.626Z,27.90
2024-02-28T20:06:22.144Z,27.90
2024-02-28T20:08:52.493Z,27.80
2024-02-28T20:11:30.975Z,27.80
2024-02-28T20:14:02.299Z,27.80
2024-02-28T20:16:31.997Z,27.80
2024-02-28T20:19:01.420Z,27.90
2024-02-28T20:21:31.540Z,27.90
2024-02-28T20:24:00.977Z,27.90
2024-02-28T20:26:32.552Z,27.90
2024-02-28T20:29:02.332Z,27.80
2024-02-28T20:31:31.698Z,27.70
2024-02-28T20:34:02.608Z,27.70
2024-02-28T20:36:32.865Z,27.60
2024-02-28T20:39:02.798Z,27.60
2024-02-28T20:41:32.403Z,27.50
2024-02-28T20:44:02.843Z,27.50
2024-02-28T20:46:33.230Z,27.40
2024-02-28T20:49:02.183Z,27.40
2024-02-28T20:51:31.827Z,27.40
2024-02-28T20:54:02.752Z,27.30
2024-02-28T20:56:32.172Z,27.30
2024-02-28T20:59:01.672Z,27.30
2024-02-28T21:01:32.906Z,27.20
2024-02-28T21:04:04.043Z,27.20
2024-02-28T21:06:34.170Z,27.30
2024-02-28T21:09:03.589Z,27.30
2024-02-28T21:11:33.914Z,27.30
2024-02-28T21:14:04.261Z,27.30
2024-02-28T21:16:33.069Z,27.40
2024-02-28T21:19:02.508Z,27.40
2024-02-28T21:21:32.778Z,27.40
2024-02-28T21:24:01.614Z,27.40
2024-02-28T21:26:31.732Z,27.40
2024-02-28T21:29:01.239Z,27.40
2024-02-28T21:31:30.650Z,27.40
2024-02-28T21:34:00.633Z,27.40
2024-02-28T21:36:31.841Z,27.40
2024-02-28T21:39:02.130Z,27.40
2024-02-28T21:41:31.015Z,27.40
2024-02-28T21:44:01.035Z,27.50
2024-02-28T21:46:30.533Z,27.50
2024-02-28T21:49:06.155Z,27.50
2024-02-28T21:51:40.326Z,27.50
2024-02-28T21:54:09.809Z,27.50
2024-02-28T21:56:43.176Z,27.50
2024-02-28T21:59:12.784Z,27.50
2024-02-28T22:01:42.339Z,27.50
2024-02-28T22:04:11.964Z,27.50
2024-02-28T22:06:42.270Z,27.50
2024-02-28T22:09:11.116Z,27.50
2024-02-28T22:11:40.620Z,27.50
2024-02-28T22:14:44.237Z,27.60
2024-02-28T22:17:13.725Z,27.40
2024-02-28T22:19:43.796Z,27.40
2024-02-28T22:22:14.169Z,27.30
2024-02-28T22:24:43.592Z,27.20
2024-02-28T22:27:12.950Z,27.10
2024-02-28T22:29:42.408Z,27.00
2024-02-28T22:32:11.878Z,26.90
2024-02-28T22:34:41.288Z,26.80
2024-02-28T22:37:10.839Z,26.80
2024-02-28T22:39:52.558Z,26.70
2024-02-28T22:42:22.885Z,26.80
2024-02-28T22:44:51.714Z,26.80
2024-02-28T22:47:21.456Z,26.70
2024-02-28T22:49:51.574Z,26.70
2024-02-28T22:52:21.055Z,26.70
2024-02-28T22:54:51.227Z,26.70
2024-02-28T22:57:20.267Z,26.70
2024-02-28T22:59:49.703Z,26.70
2024-02-28T23:02:19.125Z,26.70
2024-02-28T23:04:48.630Z,26.70
2024-02-28T23:07:18.077Z,26.80
2024-02-28T23:09:47.572Z,26.80
2024-02-28T23:12:17.168Z,26.80
2024-02-28T23:14:46.584Z,26.80
2024-02-28T23:17:18.405Z,26.80
2024-02-28T23:19:50.175Z,26.80
2024-02-28T23:22:19.900Z,26.80
2024-02-28T23:24:49.295Z,26.80
2024-02-28T23:27:19.214Z,26.80
2024-02-28T23:29:48.818Z,26.90
2024-02-28T23:32:18.511Z,26.90
2024-02-28T23:34:47.909Z,26.90
2024-02-28T23:37:17.502Z,26.90
2024-02-28T23:39:47.078Z,26.80
2024-02-28T23:42:16.537Z,26.80
2024-02-28T23:44:47.062Z,26.80
2024-02-28T23:47:16.467Z,26.80
2024-02-28T23:49:45.997Z,26.80
2024-02-28T23:52:15.598Z,26.80
2024-02-28T23:54:45.470Z,26.80
2024-02-28T23:57:14.900Z,26.90
2024-02-28T23:59:45.337Z,26.90
